Time;durP1;ratioP1;P1;durP2;ratioP2;P2;SDS_P1;SDS_P2;PMS_P1;PMS_P2;Temp;Humidity;BMP_temperature;BMP_pressure;BME280_temperature;BME280_humidity;BME280_pressure;Samples;Min_cycle;Max_cycle;Signal;HPM_P1;HPM_P2
2023/12/08 00:02:15;;;;;;;15.80;8.97;;;2.50;99.90;;;;;;5035221;28;20574;-46
2023/12/08 00:04:48;;;;;;;13.83;8.17;;;2.50;99.90;;;;;;5035029;28;20273;-45
2023/12/08 00:07:13;;;;;;;14.80;8.77;;;2.50;99.90;;;;;;5034741;28;20201;-46
2023/12/08 00:09:40;;;;;;;15.83;9.73;;;2.50;99.90;;;;;;5034611;28;20199;-47
2023/12/08 00:12:06;;;;;;;12.17;8.37;;;2.50;99.90;;;;;;5033171;28;20184;-48
2023/12/08 00:14:31;;;;;;;13.80;8.20;;;2.60;99.90;;;;;;5033151;28;20195;-46
2023/12/08 00:17:01;;;;;;;17.60;10.10;;;2.60;99.90;;;;;;5034504;28;20177;-46
2023/12/08 00:19:27;;;;;;;15.03;10.47;;;2.60;99.90;;;;;;5034478;28;20243;-46
2023/12/08 00:21:54;;;;;;;11.30;7.07;;;2.60;99.90;;;;;;5034445;28;20299;-47
2023/12/08 00:24:20;;;;;;;15.60;9.20;;;2.60;99.90;;;;;;5033285;28;20268;-47
2023/12/08 00:26:47;;;;;;;18.00;10.03;;;2.60;99.90;;;;;;5032749;28;20589;-46
2023/12/08 00:29:13;;;;;;;14.03;8.40;;;2.60;99.90;;;;;;5034060;28;20240;-46
2023/12/08 00:31:42;;;;;;;15.73;10.00;;;2.60;99.90;;;;;;5034231;28;20204;-47
2023/12/08 00:34:10;;;;;;;19.73;10.97;;;2.60;99.90;;;;;;5033982;28;20264;-48
2023/12/08 00:36:36;;;;;;;16.70;9.83;;;2.60;99.90;;;;;;5033068;28;20212;-47
2023/12/08 00:39:03;;;;;;;16.30;9.63;;;2.60;99.90;;;;;;5033878;28;20672;-46
2023/12/08 00:41:28;;;;;;;20.00;11.07;;;2.60;99.90;;;;;;5032650;28;20199;-47
2023/12/08 00:43:54;;;;;;;19.37;10.63;;;2.50;99.90;;;;;;5032678;28;20261;-46
2023/12/08 00:46:20;;;;;;;16.87;10.43;;;2.60;99.90;;;;;;5034212;28;20683;-46
2023/12/08 00:48:45;;;;;;;14.23;9.40;;;2.60;99.90;;;;;;5032668;28;20204;-47
2023/12/08 00:51:14;;;;;;;13.10;9.30;;;2.60;99.90;;;;;;5032900;28;20189;-48
2023/12/08 00:53:42;;;;;;;15.47;10.00;;;2.60;99.90;;;;;;5033945;28;20272;-47
2023/12/08 00:56:08;;;;;;;13.67;6.63;;;2.60;99.90;;;;;;5033749;28;20213;-47
2023/12/08 00:58:34;;;;;;;10.03;6.60;;;2.60;99.90;;;;;;5033577;28;20201;-46
2023/12/08 01:01:00;;;;;;;14.80;9.53;;;2.70;99.90;;;;;;5033910;28;20212;-47
2023/12/08 01:03:25;;;;;;;17.37;8.20;;;2.70;99.90;;;;;;5032736;28;20185;-46
2023/12/08 01:05:54;;;;;;;13.67;8.33;;;2.70;99.90;;;;;;5033429;28;20184;-46
2023/12/08 01:08:24;;;;;;;13.60;7.90;;;2.70;99.90;;;;;;5033693;28;20181;-47
2023/12/08 01:10:49;;;;;;;13.77;8.77;;;2.70;99.90;;;;;;5032929;28;20553;-47
2023/12/08 01:13:21;;;;;;;13.87;6.50;;;2.70;99.90;;;;;;5032968;28;20189;-47
2023/12/08 01:15:47;;;;;;;16.00;9.33;;;2.70;99.90;;;;;;5033445;28;20177;-46
2023/12/08 01:18:13;;;;;;;14.20;7.83;;;2.70;99.90;;;;;;5033277;28;20660;-47
2023/12/08 01:20:39;;;;;;;13.67;9.43;;;2.70;99.90;;;;;;5033405;28;20219;-46
2023/12/08 01:23:04;;;;;;;16.07;10.13;;;2.70;99.90;;;;;;5032751;28;20181;-48
2023/12/08 01:25:33;;;;;;;16.87;10.23;;;2.70;99.90;;;;;;5033150;28;20205;-46
2023/12/08 01:28:01;;;;;;;19.60;9.53;;;2.70;99.90;;;;;;5033279;28;20615;-48
2023/12/08 01:30:27;;;;;;;16.63;8.53;;;2.70;99.90;;;;;;5033503;28;20296;-48
2023/12/08 01:32:53;;;;;;;13.20;8.40;;;2.70;99.90;;;;;;5032106;28;20263;-48
2023/12/08 01:35:18;;;;;;;13.07;7.83;;;2.70;99.90;;;;;;5032106;28;20188;-47
2023/12/08 01:37:44;;;;;;;5.17;3.60;;;2.70;99.90;;;;;;5033193;28;20239;-47
2023/12/08 01:40:11;;;;;;;15.07;9.10;;;2.70;99.90;;;;;;5031982;28;20223;-47
2023/12/08 01:42:37;;;;;;;8.00;5.47;;;2.70;99.90;;;;;;5036070;28;20209;-47
2023/12/08 01:45:03;;;;;;;14.77;8.30;;;2.70;99.90;;;;;;5037499;28;20188;-47
2023/12/08 01:47:33;;;;;;;16.37;8.87;;;2.70;99.90;;;;;;5035958;28;20267;-47
2023/12/08 01:49:58;;;;;;;8.67;5.27;;;2.70;99.90;;;;;;5037235;28;20209;-47
2023/12/08 01:53:14;;;;;;;12.43;8.27;;;2.70;99.90;;;;;;5035857;28;20272;-47
2023/12/08 01:55:40;;;;;;;9.80;5.40;;;2.70;99.90;;;;;;5037598;28;20205;-46
2023/12/08 01:58:08;;;;;;;14.53;9.87;;;2.70;99.90;;;;;;5036056;28;20212;-47
2023/12/08 02:00:35;;;;;;;7.53;5.17;;;2.70;99.90;;;;;;5037107;28;20209;-47
2023/12/08 02:03:01;;;;;;;14.03;8.33;;;2.70;99.90;;;;;;5037047;28;20620;-48
2023/12/08 02:05:30;;;;;;;9.07;5.67;;;2.70;99.90;;;;;;5036824;28;20192;-47
2023/12/08 02:07:56;;;;;;;15.47;8.70;;;2.70;99.90;;;;;;5035493;28;20212;-46
2023/12/08 02:10:21;;;;;;;10.73;7.30;;;2.70;99.90;;;;;;5036686;28;20218;-47
2023/12/08 02:12:48;;;;;;;14.90;8.97;;;2.70;99.90;;;;;;5036938;28;20680;-46
2023/12/08 02:15:15;;;;;;;11.90;7.37;;;2.70;99.90;;;;;;5035394;28;20711;-47
2023/12/08 02:17:41;;;;;;;15.17;9.13;;;2.70;99.90;;;;;;5035410;28;20668;-47
2023/12/08 02:20:10;;;;;;;13.47;7.00;;;2.60;99.90;;;;;;5036716;28;20200;-48
2023/12/08 02:22:37;;;;;;;11.73;7.33;;;2.70;99.90;;;;;;5036508;28;20564;-48
2023/12/08 02:25:03;;;;;;;12.20;6.43;;;2.60;99.90;;;;;;5018625;28;20201;-48
2023/12/08 02:27:29;;;;;;;9.40;6.07;;;2.70;99.90;;;;;;5035146;28;20246;-46
2023/12/08 02:29:59;;;;;;;13.90;7.83;;;2.70;99.90;;;;;;5034922;28;20217;-47
2023/12/08 02:32:34;;;;;;;12.43;7.63;;;2.70;99.90;;;;;;5036817;28;20180;-47
2023/12/08 02:35:04;;;;;;;9.83;5.93;;;2.70;99.90;;;;;;5036519;28;20192;-47
2023/12/08 02:37:35;;;;;;;9.60;5.30;;;2.70;99.90;;;;;;5037027;28;20645;-47
2023/12/08 02:40:03;;;;;;;13.63;7.63;;;2.70;99.90;;;;;;5018616;28;20217;-47
2023/12/08 02:42:36;;;;;;;12.27;6.53;;;2.70;99.90;;;;;;5036074;28;20193;-45
2023/12/08 02:45:06;;;;;;;14.07;8.83;;;2.70;99.90;;;;;;5036045;28;20197;-47
2023/12/08 02:47:31;;;;;;;14.07;9.20;;;2.70;99.90;;;;;;5034905;28;20677;-47
2023/12/08 02:49:57;;;;;;;12.17;8.30;;;2.70;99.90;;;;;;5035938;28;20200;-48
2023/12/08 02:52:25;;;;;;;15.73;9.13;;;2.70;99.90;;;;;;5035920;28;20255;-48
2023/12/08 02:54:51;;;;;;;11.63;8.60;;;2.70;99.90;;;;;;5036194;28;20188;-48
2023/12/08 02:57:17;;;;;;;10.23;6.10;;;2.70;99.90;;;;;;5036116;28;20185;-47
2023/12/08 02:59:43;;;;;;;11.60;7.03;;;2.70;99.90;;;;;;5034548;28;20228;-47
2023/12/08 03:02:08;;;;;;;6.17;3.93;;;2.70;99.90;;;;;;5035803;28;20191;-48
2023/12/08 03:04:35;;;;;;;7.40;5.10;;;2.70;99.90;;;;;;5035672;28;20181;-48
2023/12/08 03:07:04;;;;;;;14.13;8.53;;;2.70;99.90;;;;;;5035589;28;20204;-47
2023/12/08 03:09:33;;;;;;;10.30;7.07;;;2.70;99.90;;;;;;5035723;28;20201;-47
2023/12/08 03:12:02;;;;;;;10.87;6.23;;;2.70;99.90;;;;;;5035554;28;20205;-48
2023/12/08 03:14:29;;;;;;;6.67;4.67;;;2.70;99.90;;;;;;5034683;28;20251;-49
2023/12/08 03:16:55;;;;;;;10.73;6.63;;;2.70;99.90;;;;;;5035409;28;20189;-48
2023/12/08 03:19:20;;;;;;;8.20;5.17;;;2.70;99.90;;;;;;5035402;28;20223;-48
2023/12/08 03:21:46;;;;;;;14.37;9.27;;;2.70;99.90;;;;;;5035321;28;20234;-47
2023/12/08 03:24:49;;;;;;;9.23;6.60;;;2.60;99.90;;;;;;5035564;28;20185;-47
2023/12/08 03:27:14;;;;;;;7.30;4.80;;;2.60;99.90;;;;;;5035084;28;20227;-48
2023/12/08 03:29:40;;;;;;;9.50;6.07;;;2.60;99.90;;;;;;5033995;28;20287;-47
2023/12/08 03:32:06;;;;;;;10.67;6.77;;;2.60;99.90;;;;;;5033954;28;20208;-48
2023/12/08 03:34:36;;;;;;;7.33;5.37;;;2.50;99.90;;;;;;5035359;28;20629;-48
2023/12/08 03:37:02;;;;;;;15.87;10.33;;;2.50;99.90;;;;;;5035546;28;20173;-47
2023/12/08 03:39:31;;;;;;;15.57;10.10;;;2.50;99.90;;;;;;5034167;28;20266;-48
2023/12/08 03:41:57;;;;;;;12.93;7.73;;;2.50;99.90;;;;;;5035332;28;20166;-47
2023/12/08 03:44:22;;;;;;;12.80;8.10;;;2.50;99.90;;;;;;5034940;28;20196;-47
2023/12/08 03:46:50;;;;;;;12.97;7.40;;;2.40;99.90;;;;;;5035047;28;20263;-47
2023/12/08 03:49:16;;;;;;;13.13;8.60;;;2.40;99.90;;;;;;5033937;28;20570;-48
2023/12/08 03:51:41;;;;;;;11.67;7.10;;;2.40;99.90;;;;;;5033844;28;20181;-49
2023/12/08 03:54:07;;;;;;;5.50;4.23;;;2.40;99.90;;;;;;5033653;28;20177;-49
2023/12/08 03:56:34;;;;;;;15.13;9.17;;;2.40;99.90;;;;;;5034936;28;20181;-48
2023/12/08 03:59:03;;;;;;;15.50;7.50;;;2.40;99.90;;;;;;5034936;28;20242;-44
2023/12/08 04:01:28;;;;;;;11.23;7.43;;;2.40;99.90;;;;;;5034651;28;20641;-44
2023/12/08 04:03:54;;;;;;;16.77;10.20;;;2.40;99.90;;;;;;5033918;28;20184;-44
2023/12/08 04:06:23;;;;;;;7.17;4.50;;;2.40;99.90;;;;;;5034350;28;20712;-43
2023/12/08 04:08:48;;;;;;;10.60;7.37;;;2.30;99.90;;;;;;5035672;28;20208;-43
2023/12/08 04:11:17;;;;;;;9.10;5.83;;;2.40;99.90;;;;;;5035260;28;20181;-44
2023/12/08 04:13:42;;;;;;;14.30;7.50;;;2.40;99.90;;;;;;5035316;28;20653;-43
2023/12/08 04:16:16;;;;;;;12.43;7.87;;;2.30;99.90;;;;;;5033813;28;20212;-44
2023/12/08 04:18:45;;;;;;;10.30;6.90;;;2.40;99.90;;;;;;5034734;28;20597;-43
2023/12/08 04:21:18;;;;;;;15.20;9.93;;;2.40;99.90;;;;;;5035038;28;20554;-43
2023/12/08 04:23:43;;;;;;;11.97;6.43;;;2.30;99.90;;;;;;5033613;28;20192;-43
2023/12/08 04:26:11;;;;;;;6.57;4.33;;;2.30;99.90;;;;;;5033986;28;20213;-44
2023/12/08 04:28:39;;;;;;;13.23;7.37;;;2.30;99.90;;;;;;5016462;28;20177;-44
2023/12/08 04:31:05;;;;;;;13.80;9.03;;;2.40;99.90;;;;;;5033551;28;20552;-44
2023/12/08 04:33:32;;;;;;;21.07;9.47;;;2.40;99.90;;;;;;5034021;28;20176;-43
2023/12/08 04:35:59;;;;;;;11.50;7.20;;;2.40;99.90;;;;;;5034133;28;20614;-44
2023/12/08 04:38:24;;;;;;;14.00;9.40;;;2.40;99.90;;;;;;5033802;28;20177;-44
2023/12/08 04:40:51;;;;;;;8.97;5.40;;;2.40;99.90;;;;;;5032732;28;20660;-45
2023/12/08 04:43:17;;;;;;;17.87;9.07;;;2.40;99.90;;;;;;5033964;28;20633;-44
2023/12/08 04:45:44;;;;;;;12.83;8.77;;;2.40;99.90;;;;;;5032605;28;20193;-43
2023/12/08 04:48:11;;;;;;;17.97;9.57;;;2.40;99.90;;;;;;5032986;28;20234;-44
2023/12/08 04:50:37;;;;;;;17.20;9.03;;;2.40;99.90;;;;;;5033911;28;20212;-43
2023/12/08 04:53:05;;;;;;;15.60;10.07;;;2.40;99.90;;;;;;5034512;28;20264;-44
2023/12/08 04:55:36;;;;;;;9.03;5.73;;;2.30;99.90;;;;;;5033979;28;20170;-44
2023/12/08 04:58:01;;;;;;;11.83;6.30;;;2.40;99.90;;;;;;5033933;28;20185;-44
2023/12/08 05:00:33;;;;;;;15.67;10.80;;;2.40;99.90;;;;;;5033838;28;20208;-45
2023/12/08 05:02:59;;;;;;;17.27;8.97;;;2.40;99.90;;;;;;5033789;28;20271;-44
2023/12/08 05:05:26;;;;;;;16.30;9.23;;;2.40;99.90;;;;;;5033512;28;20264;-43
2023/12/08 05:07:52;;;;;;;10.73;6.53;;;2.40;99.90;;;;;;5032682;28;20728;-44
2023/12/08 05:10:18;;;;;;;7.77;5.67;;;2.40;99.90;;;;;;5032039;28;20205;-43
2023/12/08 05:12:47;;;;;;;16.97;9.57;;;2.40;99.90;;;;;;5033685;28;20227;-43
2023/12/08 05:15:15;;;;;;;10.30;6.63;;;2.40;99.90;;;;;;5033330;28;20181;-43
2023/12/08 05:17:42;;;;;;;18.07;9.10;;;2.40;99.90;;;;;;5034002;28;20192;-44
2023/12/08 05:20:08;;;;;;;18.53;11.67;;;2.40;99.90;;;;;;5033615;28;20203;-43
2023/12/08 05:22:34;;;;;;;15.30;9.03;;;2.40;99.90;;;;;;5033374;28;20193;-45
2023/12/08 05:25:00;;;;;;;17.70;10.47;;;2.40;99.90;;;;;;5033448;28;20193;-43
2023/12/08 05:27:32;;;;;;;13.87;8.83;;;2.40;99.90;;;;;;5033138;28;20216;-43
2023/12/08 05:29:58;;;;;;;15.80;9.17;;;2.40;99.90;;;;;;5032005;28;20251;-45
2023/12/08 05:32:29;;;;;;;20.47;9.70;;;2.40;99.90;;;;;;5032058;28;20177;-44
2023/12/08 05:34:55;;;;;;;16.37;10.17;;;2.40;99.90;;;;;;5033512;28;20157;-44
2023/12/08 05:37:21;;;;;;;17.23;10.47;;;2.40;99.90;;;;;;5032239;28;20200;-43
2023/12/08 05:39:47;;;;;;;13.63;7.37;;;2.40;99.90;;;;;;5033164;28;20251;-43
2023/12/08 05:42:14;;;;;;;15.70;8.67;;;2.40;99.90;;;;;;5031799;28;20193;-45
2023/12/08 05:44:42;;;;;;;15.83;9.80;;;2.40;99.90;;;;;;5032127;28;20549;-44
2023/12/08 05:47:08;;;;;;;18.30;10.63;;;2.40;99.90;;;;;;5032956;28;20209;-44
2023/12/08 05:49:34;;;;;;;13.90;9.00;;;2.40;99.90;;;;;;5033227;28;20197;-44
2023/12/08 05:52:00;;;;;;;17.53;10.80;;;2.50;99.90;;;;;;5033181;28;20181;-44
2023/12/08 05:54:25;;;;;;;12.73;7.43;;;2.50;99.90;;;;;;5033603;28;20268;-45
2023/12/08 05:56:51;;;;;;;19.03;11.53;;;2.50;99.90;;;;;;5033439;28;20188;-44
2023/12/08 05:59:17;;;;;;;18.67;10.67;;;2.50;99.90;;;;;;5032022;28;20205;-44
2023/12/08 06:01:42;;;;;;;9.10;5.37;;;2.50;99.90;;;;;;5032989;28;20180;-43
2023/12/08 06:04:08;;;;;;;17.77;10.17;;;2.50;99.90;;;;;;5032935;28;20649;-43
2023/12/08 06:06:38;;;;;;;14.23;8.50;;;2.50;99.90;;;;;;5033078;28;20258;-43
2023/12/08 06:09:07;;;;;;;18.07;10.47;;;2.50;99.90;;;;;;5032856;28;20567;-43
2023/12/08 06:11:33;;;;;;;19.47;10.87;;;2.50;99.90;;;;;;5032949;28;20534;-43
2023/12/08 06:14:01;;;;;;;20.30;9.77;;;2.60;99.90;;;;;;5032753;28;20186;-43
2023/12/08 06:16:28;;;;;;;21.20;11.93;;;2.60;99.90;;;;;;5033386;28;20264;-43
2023/12/08 06:18:55;;;;;;;17.53;11.17;;;2.60;99.90;;;;;;5033006;28;20205;-43
2023/12/08 06:21:21;;;;;;;15.33;8.53;;;2.60;99.90;;;;;;5032849;28;20185;-43
2023/12/08 06:23:54;;;;;;;17.00;9.87;;;2.60;99.90;;;;;;5033012;28;20239;-42
2023/12/08 06:26:19;;;;;;;16.90;10.17;;;2.60;99.90;;;;;;5032811;28;20225;-43
2023/12/08 06:28:46;;;;;;;20.73;11.90;;;2.60;99.90;;;;;;5036457;28;20279;-45
2023/12/08 06:31:13;;;;;;;19.53;10.50;;;2.60;99.90;;;;;;5036199;28;20197;-44
2023/12/08 06:33:39;;;;;;;14.57;10.00;;;2.60;99.90;;;;;;5036287;28;20199;-43
2023/12/08 06:36:05;;;;;;;17.73;10.33;;;2.70;99.90;;;;;;5036522;28;20557;-43
2023/12/08 06:38:31;;;;;;;20.17;12.27;;;2.60;99.90;;;;;;5034910;28;20285;-43
2023/12/08 06:40:56;;;;;;;19.97;11.43;;;2.70;99.90;;;;;;5018470;28;20212;-43
2023/12/08 06:43:22;;;;;;;18.17;11.40;;;2.70;99.90;;;;;;5035426;28;20549;-44
2023/12/08 06:45:48;;;;;;;22.87;12.17;;;2.70;99.90;;;;;;5036375;28;20263;-44
2023/12/08 06:48:13;;;;;;;20.40;12.10;;;2.70;99.90;;;;;;5034824;28;20282;-44
2023/12/08 06:50:50;;;;;;;19.10;10.53;;;2.70;99.90;;;;;;5036256;28;20204;-43
2023/12/08 06:56:42;;;;;;;17.67;10.40;;;2.70;99.90;;;;;;5035968;28;20163;-43
2023/12/08 06:59:11;;;;;;;18.73;11.27;;;2.70;99.90;;;;;;5036053;28;20201;-43
2023/12/08 07:01:37;;;;;;;21.83;12.47;;;2.70;99.90;;;;;;5036064;28;20193;-46
2023/12/08 07:04:03;;;;;;;18.90;11.77;;;2.70;99.90;;;;;;5035574;28;20193;-42
2023/12/08 07:09:52;;;;;;;19.33;11.20;;;2.70;99.90;;;;;;5035568;28;20199;-43
2023/12/08 07:12:17;;;;;;;18.03;10.50;;;2.70;99.90;;;;;;5035711;28;20264;-43
2023/12/08 07:14:43;;;;;;;19.03;11.37;;;2.70;99.90;;;;;;5035792;28;20239;-43
2023/12/08 07:17:13;;;;;;;19.17;11.60;;;2.70;99.90;;;;;;5035734;28;20185;-43
2023/12/08 07:19:39;;;;;;;22.43;12.83;;;2.80;99.90;;;;;;5035353;28;20632;-45
2023/12/08 07:22:10;;;;;;;17.23;11.33;;;2.70;99.90;;;;;;5035426;28;20189;-44
2023/12/08 07:24:39;;;;;;;21.70;12.90;;;2.80;99.90;;;;;;5034213;28;20220;-43
2023/12/08 07:27:06;;;;;;;21.30;12.30;;;2.80;99.90;;;;;;5034582;28;20665;-42
2023/12/08 07:29:32;;;;;;;21.60;12.70;;;2.80;99.90;;;;;;5035206;28;20211;-45
2023/12/08 07:32:01;;;;;;;15.87;9.60;;;2.80;99.90;;;;;;5017430;28;20581;-43
2023/12/08 07:34:27;;;;;;;22.73;12.73;;;3.00;99.90;;;;;;5035163;28;20181;-43
2023/12/08 07:36:55;;;;;;;18.27;10.50;;;2.80;99.90;;;;;;5035203;28;20172;-44
2023/12/08 07:40:16;;;;;;;14.67;7.17;;;2.80;99.90;;;;;;5034141;28;20275;-44
2023/12/08 07:42:44;;;;;;;20.03;11.57;;;2.90;99.90;;;;;;5035041;28;20224;-45
2023/12/08 07:45:13;;;;;;;18.57;11.87;;;2.90;99.90;;;;;;5034108;28;20220;-45
2023/12/08 07:47:40;;;;;;;20.13;11.10;;;2.90;99.90;;;;;;5035112;28;20213;-43
2023/12/08 07:50:06;;;;;;;16.80;11.33;;;2.90;99.90;;;;;;5033684;28;20279;-43
2023/12/08 07:52:34;;;;;;;26.57;11.97;;;2.90;99.90;;;;;;5034782;28;20177;-44
2023/12/08 07:55:06;;;;;;;20.70;12.90;;;2.90;99.90;;;;;;5034758;28;20161;-45
2023/12/08 07:57:33;;;;;;;24.13;13.00;;;2.90;99.90;;;;;;5034767;28;20185;-44
2023/12/08 08:00:11;;;;;;;16.77;9.83;;;2.90;99.90;;;;;;5016840;28;20217;-43
2023/12/08 08:02:37;;;;;;;19.83;12.23;;;2.90;99.90;;;;;;5033941;28;20649;-45
2023/12/08 08:05:04;;;;;;;21.43;11.70;;;2.90;99.90;;;;;;5034864;28;20228;-43
2023/12/08 08:07:30;;;;;;;22.40;13.10;;;2.90;99.90;;;;;;5034830;28;20702;-47
2023/12/08 08:10:02;;;;;;;25.63;13.73;;;2.90;99.90;;;;;;5034295;28;20201;-47
2023/12/08 08:12:28;;;;;;;19.07;12.20;;;3.00;99.90;;;;;;5034448;28;20169;-47
2023/12/08 08:14:54;;;;;;;23.87;13.77;;;3.00;99.90;;;;;;5034713;28;20192;-48
2023/12/08 08:17:19;;;;;;;26.97;14.27;;;3.00;99.90;;;;;;5034586;28;20653;-48
2023/12/08 08:19:48;;;;;;;23.47;14.20;;;3.00;99.90;;;;;;5034468;28;20201;-47
2023/12/08 08:22:15;;;;;;;19.87;11.87;;;3.00;99.90;;;;;;5035037;28;20180;-48
2023/12/08 08:24:42;;;;;;;20.70;13.13;;;3.00;99.90;;;;;;5016768;28;20199;-48
2023/12/08 08:27:10;;;;;;;23.07;12.80;;;3.00;99.90;;;;;;5034106;28;20205;-48
2023/12/08 08:29:36;;;;;;;21.57;12.40;;;3.00;99.90;;;;;;5034364;28;20200;-47
2023/12/08 08:32:02;;;;;;;21.87;12.77;;;3.10;99.90;;;;;;5032871;28;20193;-47
2023/12/08 08:34:30;;;;;;;24.27;12.20;;;3.10;99.90;;;;;;5034010;28;20613;-47
2023/12/08 08:37:00;;;;;;;21.13;11.77;;;3.10;99.90;;;;;;5034173;28;20189;-47
2023/12/08 08:39:31;;;;;;;20.73;12.27;;;3.10;99.90;;;;;;5033897;28;20197;-47
2023/12/08 08:41:56;;;;;;;19.07;11.20;;;3.10;99.90;;;;;;5033468;28;20196;-48
2023/12/08 08:44:22;;;;;;;20.43;12.97;;;3.10;99.90;;;;;;5034125;28;20173;-47
2023/12/08 08:46:49;;;;;;;25.13;12.73;;;3.20;99.90;;;;;;5033787;28;20276;-46
2023/12/08 08:49:16;;;;;;;20.97;12.90;;;3.20;99.90;;;;;;5033572;28;20280;-48
2023/12/08 08:51:44;;;;;;;20.27;12.70;;;3.20;99.90;;;;;;5033072;28;20235;-47
2023/12/08 08:54:13;;;;;;;21.77;12.73;;;3.20;99.90;;;;;;5025953;28;20212;-48
2023/12/08 08:56:38;;;;;;;21.10;13.20;;;3.20;99.90;;;;;;5033937;28;20197;-46
2023/12/08 08:59:05;;;;;;;21.07;12.47;;;3.30;99.90;;;;;;5033636;28;20689;-47
2023/12/08 09:01:31;;;;;;;19.60;12.23;;;3.30;99.90;;;;;;5032749;28;20185;-47
2023/12/08 09:03:59;;;;;;;22.07;12.57;;;3.30;99.90;;;;;;5033893;28;20260;-48
2023/12/08 09:06:25;;;;;;;21.87;13.07;;;3.30;99.90;;;;;;5033480;28;20197;-49
2023/12/08 09:08:51;;;;;;;21.60;12.53;;;3.30;99.90;;;;;;5033641;28;20208;-47
2023/12/08 09:11:17;;;;;;;23.37;11.87;;;3.40;99.90;;;;;;5033368;28;20188;-47
2023/12/08 09:13:49;;;;;;;20.33;11.67;;;3.40;99.90;;;;;;5032346;28;20188;-48
2023/12/08 09:16:18;;;;;;;22.33;12.40;;;3.50;99.90;;;;;;5033428;28;20629;-48
2023/12/08 09:18:49;;;;;;;19.50;12.37;;;3.40;99.90;;;;;;5034116;28;20200;-49
2023/12/08 09:21:19;;;;;;;22.90;12.80;;;3.50;99.90;;;;;;5033336;28;20306;-47
2023/12/08 09:23:47;;;;;;;22.00;11.73;;;3.60;99.90;;;;;;5033605;28;20184;-47
2023/12/08 09:26:13;;;;;;;26.87;13.03;;;3.50;99.90;;;;;;5033354;28;20189;-48
2023/12/08 09:28:38;;;;;;;23.87;13.60;;;3.60;99.90;;;;;;5033543;28;20545;-49
2023/12/08 09:31:04;;;;;;;23.10;13.70;;;3.60;99.90;;;;;;5033254;28;20641;-47
2023/12/08 09:33:33;;;;;;;21.47;12.67;;;3.60;99.90;;;;;;5032018;28;20300;-47
2023/12/08 09:39:22;;;;;;;25.40;12.60;;;3.70;99.90;;;;;;5033451;28;20208;-49
2023/12/08 09:41:54;;;;;;;26.17;12.83;;;3.80;99.90;;;;;;5033165;28;20172;-49
2023/12/08 09:44:20;;;;;;;25.73;12.47;;;3.90;99.90;;;;;;5033781;28;20165;-47
2023/12/08 09:46:54;;;;;;;21.47;11.83;;;3.90;99.90;;;;;;5031926;28;20700;-48
2023/12/08 09:49:29;;;;;;;24.57;11.40;;;4.00;99.90;;;;;;5033206;28;20192;-47
2023/12/08 09:51:56;;;;;;;21.27;10.73;;;4.00;99.90;;;;;;5033090;28;20183;-49
2023/12/08 09:54:26;;;;;;;22.60;10.87;;;4.10;99.90;;;;;;5033025;28;20188;-48
2023/12/08 09:56:53;;;;;;;27.03;11.03;;;4.20;99.90;;;;;;5032932;28;20188;-49
2023/12/08 09:59:35;;;;;;;27.90;11.10;;;4.30;99.90;;;;;;5032957;28;20201;-48
2023/12/08 10:02:00;;;;;;;28.37;11.13;;;4.40;99.90;;;;;;5033254;28;20720;-48
2023/12/08 10:04:29;;;;;;;23.50;11.33;;;4.50;99.90;;;;;;5037020;28;20260;-48
2023/12/08 10:07:04;;;;;;;28.87;11.30;;;4.60;99.90;;;;;;5036955;28;20200;-50
2023/12/08 10:09:30;;;;;;;30.10;10.40;;;4.70;99.90;;;;;;5036959;28;20224;-49
2023/12/08 10:11:56;;;;;;;24.63;11.23;;;4.80;99.90;;;;;;5036688;28;20174;-47
2023/12/08 10:14:23;;;;;;;24.77;9.83;;;4.80;99.90;;;;;;5036919;28;20188;-50
2023/12/08 10:16:49;;;;;;;28.53;10.70;;;5.00;99.90;;;;;;5036150;28;20201;-49
2023/12/08 10:19:22;;;;;;;28.73;10.90;;;5.00;99.90;;;;;;5035510;28;20259;-50
2023/12/08 10:22:02;;;;;;;29.30;9.23;;;5.10;99.90;;;;;;5036406;28;20640;-47
2023/12/08 10:24:30;;;;;;;29.00;9.50;;;5.20;99.90;;;;;;5035408;28;20205;-48
2023/12/08 10:26:59;;;;;;;28.30;11.20;;;5.30;99.90;;;;;;5034562;28;20213;-47
2023/12/08 10:29:33;;;;;;;32.93;11.23;;;5.40;99.90;;;;;;5036668;28;20577;-47
2023/12/08 10:31:59;;;;;;;26.63;10.97;;;5.50;99.90;;;;;;5036638;28;20210;-47
2023/12/08 10:34:26;;;;;;;30.10;12.73;;;5.60;99.90;;;;;;5037025;28;20181;-46
2023/12/08 10:36:54;;;;;;;27.07;12.10;;;5.60;99.90;;;;;;5036743;28;20213;-48
2023/12/08 10:39:24;;;;;;;26.70;12.23;;;5.70;99.90;;;;;;5034867;28;20261;-48
2023/12/08 10:41:53;;;;;;;41.03;11.70;;;5.80;99.90;;;;;;5035074;28;20186;-47
2023/12/08 10:44:31;;;;;;;30.23;11.40;;;5.80;99.90;;;;;;5036466;28;20202;-48
2023/12/08 10:46:57;;;;;;;26.70;10.77;;;5.80;99.90;;;;;;5036685;28;20197;-48
2023/12/08 10:49:27;;;;;;;27.87;9.90;;;5.90;99.90;;;;;;5036213;28;20604;-47
2023/12/08 10:51:54;;;;;;;26.83;9.90;;;6.00;99.90;;;;;;5035989;28;20712;-47
2023/12/08 10:54:20;;;;;;;20.50;9.87;;;6.00;99.90;;;;;;5033553;28;20252;-47
2023/12/08 10:56:49;;;;;;;22.20;9.73;;;6.00;99.90;;;;;;5035400;28;20178;-45
2023/12/08 10:59:25;;;;;;;29.80;10.50;;;6.10;99.90;;;;;;5037353;28;20190;-47
2023/12/08 11:01:54;;;;;;;26.07;9.37;;;6.10;99.90;;;;;;5036851;28;20695;-47
2023/12/08 11:04:26;;;;;;;22.37;8.60;;;6.20;99.90;;;;;;5036721;28;20650;-47
2023/12/08 11:07:09;;;;;;;28.30;8.50;;;6.20;99.90;;;;;;5035255;28;20214;-48
2023/12/08 11:09:41;;;;;;;22.50;8.87;;;6.30;99.90;;;;;;5035742;28;20281;-48
2023/12/08 11:12:10;;;;;;;26.33;8.57;;;6.30;99.90;;;;;;5035484;28;20636;-47
2023/12/08 11:14:49;;;;;;;20.27;8.20;;;6.40;99.90;;;;;;5035818;28;20186;-47
2023/12/08 11:17:43;;;;;;;23.83;8.37;;;6.40;99.90;;;;;;5035598;28;20168;-48
2023/12/08 11:20:13;;;;;;;21.77;8.17;;;6.40;99.90;;;;;;5034373;28;20687;-48
2023/12/08 11:22:40;;;;;;;23.03;8.50;;;6.40;99.90;;;;;;5034691;28;20218;-48
2023/12/08 11:25:12;;;;;;;28.27;9.57;;;6.50;99.90;;;;;;5036309;28;20230;-49
2023/12/08 11:27:57;;;;;;;23.90;8.97;;;6.50;99.90;;;;;;5034960;28;20222;-49
2023/12/08 11:30:31;;;;;;;25.13;8.10;;;6.50;99.90;;;;;;5035480;28;20210;-49
2023/12/08 11:33:31;;;;;;;27.97;9.10;;;6.50;99.90;;;;;;5035546;28;20222;-47
2023/12/08 11:36:08;;;;;;;22.70;8.53;;;6.50;99.90;;;;;;5035393;28;20162;-47
2023/12/08 11:38:34;;;;;;;30.33;9.57;;;6.60;99.90;;;;;;5034188;28;20188;-47
2023/12/08 11:41:00;;;;;;;32.57;9.40;;;6.50;99.90;;;;;;5035120;28;20183;-48
2023/12/08 11:43:27;;;;;;;32.90;10.67;;;6.60;99.90;;;;;;5034224;28;20207;-47
2023/12/08 11:45:55;;;;;;;26.37;9.43;;;6.60;99.90;;;;;;5035272;28;20188;-48
2023/12/08 11:48:22;;;;;;;28.27;9.30;;;6.60;99.90;;;;;;5033826;28;20214;-48
2023/12/08 11:50:52;;;;;;;39.47;11.13;;;6.60;99.90;;;;;;5035018;28;20201;-47
2023/12/08 11:53:19;;;;;;;27.57;9.93;;;6.60;99.90;;;;;;5035141;28;20184;-47
2023/12/08 11:55:45;;;;;;;34.70;10.97;;;6.70;99.90;;;;;;5034992;28;20176;-47
2023/12/08 11:58:11;;;;;;;44.50;11.87;;;6.70;99.90;;;;;;5034653;28;20189;-48
2023/12/08 12:00:38;;;;;;;33.83;9.30;;;6.70;99.90;;;;;;5033520;28;20538;-48
2023/12/08 12:03:06;;;;;;;36.23;10.27;;;6.80;99.90;;;;;;5033881;28;20194;-48
2023/12/08 12:05:32;;;;;;;40.30;10.63;;;6.80;99.90;;;;;;5034826;28;20194;-48
2023/12/08 12:07:59;;;;;;;36.10;10.40;;;6.80;99.90;;;;;;5034477;28;20196;-49
2023/12/08 12:10:32;;;;;;;34.40;10.13;;;6.80;99.90;;;;;;5034713;28;20236;-48
2023/12/08 12:13:14;;;;;;;40.80;10.23;;;6.80;99.90;;;;;;5034585;28;20181;-48
2023/12/08 12:15:41;;;;;;;30.37;8.93;;;6.80;99.90;;;;;;5016448;28;20528;-47
2023/12/08 12:18:09;;;;;;;36.37;9.70;;;6.90;99.90;;;;;;5017063;28;20200;-47
2023/12/08 12:20:38;;;;;;;45.57;10.47;;;6.90;99.90;;;;;;5034188;28;20597;-47
2023/12/08 12:23:05;;;;;;;32.53;9.23;;;7.00;99.90;;;;;;5033244;28;20278;-47
2023/12/08 12:25:33;;;;;;;32.23;9.37;;;7.00;99.90;;;;;;5033684;28;20192;-47
2023/12/08 12:27:59;;;;;;;34.27;8.07;;;7.00;99.90;;;;;;5034714;28;20219;-47
2023/12/08 12:30:27;;;;;;;34.07;8.77;;;7.00;99.90;;;;;;5034175;28;20200;-49
2023/12/08 12:32:57;;;;;;;35.57;8.80;;;7.10;99.90;;;;;;5034227;28;20261;-48
2023/12/08 12:35:23;;;;;;;35.43;10.27;;;7.10;99.90;;;;;;5033993;28;20264;-48
2023/12/08 12:37:53;;;;;;;35.53;9.47;;;7.20;99.90;;;;;;5034279;28;20542;-48
2023/12/08 12:40:20;;;;;;;36.20;9.37;;;7.20;99.90;;;;;;5028881;28;20267;-48
2023/12/08 12:42:48;;;;;;;27.97;9.00;;;7.30;99.90;;;;;;5033043;28;20192;-48
2023/12/08 12:45:31;;;;;;;44.20;10.50;;;7.30;99.90;;;;;;5033763;28;20185;-49
2023/12/08 12:48:08;;;;;;;40.47;10.77;;;7.40;99.90;;;;;;5040607;28;20229;-44
2023/12/08 12:50:52;;;;;;;45.30;11.57;;;7.40;99.90;;;;;;5039433;28;20273;-45
2023/12/08 12:53:22;;;;;;;37.83;11.30;;;7.40;99.90;;;;;;5047355;28;20185;-44
2023/12/08 12:55:51;;;;;;;40.80;11.53;;;7.40;99.90;;;;;;5043750;28;20218;-44
2023/12/08 12:58:22;;;;;;;45.73;11.27;;;7.40;99.90;;;;;;5043575;28;20244;-44
2023/12/08 13:00:51;;;;;;;44.63;11.10;;;7.40;99.90;;;;;;5041794;28;20176;-43